Mission Square, Washington
Current Conditions -  °F | °C
As of 7:55 PM on Sunday 23 Nov 2014 (Local Time) from KEAT Reporting Station
Clear Clear  
Wind Chill: 33°   Ceiling: Unl
Heat Index: 41°   Visibility: 10mi
Dew Point: 30°   Wind: 16mph
Humidity: 65%   Direction: 320°NW
Pressure: 30.15"   Gusts: NA
Location:  47.3635°N, 120.348°W
Report Text: KEAT 240355Z AUTO 32014KT 10SM CLR 05/M01 A3015 RMK AO2 SLP219 T00501011
Loading
Personal Weather Stations






























Interactive Weather Map New forecast layout! Learn more

10-Day Weather Forecast

Advertisements
Track Severe Weather on mobile